createdAt,value
2018-04-24T00:01:48.513Z,7.10
2018-04-24T00:04:16.023Z,6.57
2018-04-24T00:06:44.369Z,5.93
2018-04-24T00:09:11.942Z,6.50
2018-04-24T00:11:39.453Z,6.55
2018-04-24T00:14:06.978Z,6.32
2018-04-24T00:16:35.249Z,6.22
2018-04-24T00:19:03.536Z,6.80
2018-04-24T00:21:31.831Z,7.25
2018-04-24T00:23:59.341Z,6.50
2018-04-24T00:26:26.929Z,7.12
2018-04-24T00:28:55.425Z,6.70
2018-04-24T00:31:23.260Z,6.78
2018-04-24T00:33:50.804Z,7.37
2018-04-24T00:36:18.632Z,6.75
2018-04-24T00:38:46.236Z,7.00
2018-04-24T00:41:13.805Z,6.62
2018-04-24T00:43:41.639Z,6.60
2018-04-24T00:46:09.516Z,6.37
2018-04-24T00:48:37.492Z,6.87
2018-04-24T00:51:05.039Z,6.00
2018-04-24T00:53:40.581Z,5.68
2018-04-24T00:56:10.226Z,5.97
2018-04-24T00:58:37.849Z,5.45
2018-04-24T01:01:05.534Z,6.53
2018-04-24T01:03:33.822Z,6.80
2018-04-24T01:06:01.357Z,5.90
2018-04-24T01:08:30.126Z,6.60
2018-04-24T01:10:57.626Z,6.40
2018-04-24T01:13:25.194Z,6.22
2018-04-24T01:15:52.729Z,5.90
2018-04-24T01:18:20.238Z,6.20
2018-04-24T01:20:47.753Z,5.55
2018-04-24T01:23:15.319Z,5.20
2018-04-24T01:25:42.797Z,5.00
2018-04-24T01:28:10.326Z,5.57
2018-04-24T01:30:37.829Z,5.03
2018-04-24T01:33:05.350Z,5.03
2018-04-24T01:35:32.895Z,5.07
2018-04-24T01:38:00.435Z,5.85
2018-04-24T01:40:28.738Z,5.10
2018-04-24T01:42:56.358Z,5.30
2018-04-24T01:45:23.891Z,5.82
2018-04-24T01:47:51.395Z,6.15
2018-04-24T01:50:18.919Z,5.87
2018-04-24T01:52:46.479Z,5.90
2018-04-24T01:55:13.998Z,5.80
2018-04-24T01:57:41.511Z,6.43
2018-04-24T02:00:09.796Z,5.85
2018-04-24T02:02:38.062Z,5.95
2018-04-24T02:05:05.577Z,6.30
2018-04-24T02:07:33.079Z,6.30
2018-04-24T02:10:00.602Z,6.03
2018-04-24T02:12:28.190Z,6.80
2018-04-24T02:14:55.692Z,6.25
2018-04-24T02:17:23.206Z,6.45
2018-04-24T02:19:50.757Z,6.47
2018-04-24T02:22:18.261Z,6.18
2018-04-24T02:24:45.797Z,6.30
2018-04-24T02:27:14.080Z,6.20
2018-04-24T02:29:42.450Z,6.00
2018-04-24T02:32:09.971Z,5.70
2018-04-24T02:34:37.541Z,5.72
2018-04-24T02:37:05.042Z,6.00
2018-04-24T02:39:32.558Z,5.90
2018-04-24T02:42:00.079Z,5.70
2018-04-24T02:44:27.591Z,5.80
2018-04-24T02:46:55.089Z,5.87
2018-04-24T02:49:22.580Z,5.70
2018-04-24T02:51:50.138Z,6.15
2018-04-24T02:54:17.679Z,5.90
2018-04-24T02:56:45.200Z,5.85
2018-04-24T02:59:12.696Z,4.53
2018-04-24T03:01:40.199Z,4.47
2018-04-24T03:04:07.704Z,6.07
2018-04-24T03:06:35.214Z,4.85
2018-04-24T03:09:02.723Z,5.65
2018-04-24T03:11:30.238Z,4.47
2018-04-24T03:13:57.748Z,4.65
2018-04-24T03:16:25.254Z,6.15
2018-04-24T03:18:52.744Z,5.00
2018-04-24T03:21:21.020Z,4.60
2018-04-24T03:23:49.286Z,5.10
2018-04-24T03:26:16.812Z,4.12
2018-04-24T03:28:44.311Z,4.97
2018-04-24T03:31:11.840Z,4.90
2018-04-24T03:33:39.361Z,4.53
2018-04-24T03:36:06.899Z,4.15
2018-04-24T03:38:34.420Z,4.80
2018-04-24T03:41:01.962Z,4.80
2018-04-24T03:43:29.479Z,4.75
2018-04-24T03:45:57.005Z,5.07
2018-04-24T03:48:24.557Z,4.62
2018-04-24T03:50:52.075Z,5.10
2018-04-24T03:53:19.612Z,5.17
2018-04-24T03:55:48.034Z,5.47
2018-04-24T03:58:15.570Z,5.00
2018-04-24T04:00:43.085Z,5.45
2018-04-24T04:03:10.594Z,5.50
2018-04-24T04:05:38.109Z,6.65
2018-04-24T04:08:05.678Z,6.50
2018-04-24T04:10:33.197Z,6.15
2018-04-24T04:13:00.701Z,6.90
2018-04-24T04:15:29.029Z,6.60
2018-04-24T04:18:08.594Z,6.85
2018-04-24T04:20:47.885Z,6.93
2018-04-24T04:23:28.049Z,7.18
2018-04-24T04:25:55.639Z,6.72
2018-04-24T04:28:23.141Z,6.82
2018-04-24T04:30:52.257Z,8.07
2018-04-24T04:33:19.787Z,6.70
2018-04-24T04:35:47.310Z,7.10
2018-04-24T04:38:14.828Z,6.47
2018-04-24T04:40:43.124Z,7.07
2018-04-24T04:43:10.836Z,7.07
2018-04-24T04:45:38.352Z,6.90
2018-04-24T04:48:05.869Z,6.43
2018-04-24T04:50:34.170Z,6.90
2018-04-24T04:53:01.679Z,6.80
2018-04-24T04:55:29.187Z,6.35
2018-04-24T04:57:56.713Z,7.50
2018-04-24T05:00:24.262Z,7.32
2018-04-24T05:02:51.769Z,7.30
2018-04-24T05:05:19.280Z,7.57
2018-04-24T05:07:46.818Z,7.05
2018-04-24T05:10:14.359Z,7.72
2018-04-24T05:12:41.926Z,7.07
2018-04-24T05:15:09.453Z,7.40
2018-04-24T05:17:37.731Z,8.20
2018-04-24T05:20:06.098Z,6.55
2018-04-24T05:22:33.559Z,7.40
2018-04-24T05:25:01.848Z,6.90
2018-04-24T05:27:30.120Z,7.10
2018-04-24T05:29:58.441Z,7.43
2018-04-24T05:32:25.950Z,8.27
2018-04-24T05:34:53.470Z,7.40
2018-04-24T05:37:20.985Z,8.77
2018-04-24T05:39:49.251Z,8.18
2018-04-24T05:42:17.596Z,7.37
2018-04-24T05:44:45.120Z,9.63
2018-04-24T05:47:12.756Z,8.57
2018-04-24T05:49:41.060Z,8.48
2018-04-24T05:52:08.561Z,7.82
2018-04-24T05:54:36.076Z,7.87
2018-04-24T05:57:03.571Z,7.80
2018-04-24T05:59:31.119Z,8.55
2018-04-24T06:01:58.674Z,8.40
2018-04-24T06:04:26.186Z,8.20
2018-04-24T06:06:54.508Z,7.87
2018-04-24T06:09:22.052Z,8.55
2018-04-24T06:11:49.571Z,7.93
2018-04-24T06:14:17.129Z,7.40
2018-04-24T06:16:44.630Z,7.62
2018-04-24T06:19:12.134Z,8.27
2018-04-24T06:21:39.695Z,8.25
2018-04-24T06:24:07.221Z,9.33
2018-04-24T06:26:34.767Z,8.18
2018-04-24T06:29:02.270Z,8.93
2018-04-24T06:31:29.781Z,8.63
2018-04-24T06:33:57.285Z,8.57
2018-04-24T06:36:24.837Z,9.15
2018-04-24T06:38:52.369Z,8.55
2018-04-24T06:41:19.951Z,8.85
2018-04-24T06:43:47.505Z,9.52
2018-04-24T06:46:15.089Z,8.32
2018-04-24T06:48:42.616Z,10.23
2018-04-24T06:51:10.196Z,9.27
2018-04-24T06:53:37.763Z,9.60
2018-04-24T06:56:05.292Z,9.45
2018-04-24T06:58:32.792Z,8.75
2018-04-24T07:01:04.593Z,9.40
2018-04-24T07:03:33.006Z,10.52
2018-04-24T07:06:01.008Z,9.55
2018-04-24T07:08:28.592Z,10.13
2018-04-24T07:10:56.899Z,10.18
2018-04-24T07:13:24.425Z,9.05
2018-04-24T07:15:52.722Z,11.17
2018-04-24T07:18:20.246Z,9.65
2018-04-24T07:20:47.770Z,11.90
2018-04-24T07:23:15.281Z,11.97
2018-04-24T07:25:43.577Z,10.85
2018-04-24T07:28:11.117Z,12.82
2018-04-24T07:30:39.398Z,12.70
2018-04-24T07:33:07.703Z,12.70
2018-04-24T07:35:35.266Z,12.95
2018-04-24T07:38:02.833Z,13.70
2018-04-24T07:40:30.378Z,14.20
2018-04-24T07:42:57.936Z,16.50
2018-04-24T07:45:25.456Z,14.30
2018-04-24T07:47:53.008Z,15.82
2018-04-24T07:50:20.523Z,16.10
2018-04-24T07:52:48.073Z,16.05
2018-04-24T07:55:15.598Z,16.52
2018-04-24T07:57:43.117Z,16.00
2018-04-24T08:00:10.639Z,18.58
2018-04-24T08:02:38.936Z,18.55
2018-04-24T08:05:06.470Z,17.12
2018-04-24T08:07:33.989Z,17.75
2018-04-24T08:10:01.517Z,15.90
2018-04-24T08:12:29.041Z,16.98
2018-04-24T08:14:57.336Z,18.77
2018-04-24T08:17:25.629Z,18.40
2018-04-24T08:19:53.165Z,17.60
2018-04-24T08:22:20.808Z,17.73
2018-04-24T08:24:49.212Z,18.60
2018-04-24T08:27:16.853Z,17.90
2018-04-24T08:29:45.226Z,18.27
2018-04-24T08:32:12.746Z,17.80
2018-04-24T08:34:40.273Z,18.42
2018-04-24T08:37:08.556Z,17.10
2018-04-24T08:39:36.156Z,16.20
2018-04-24T08:42:03.673Z,15.65
2018-04-24T08:44:32.020Z,13.45
2018-04-24T08:46:59.602Z,16.52
2018-04-24T08:49:27.888Z,15.07
2018-04-24T08:51:56.195Z,16.02
2018-04-24T08:54:23.729Z,15.88
2018-04-24T08:56:52.010Z,16.27
2018-04-24T08:59:19.529Z,15.57
2018-04-24T09:01:47.070Z,15.43
2018-04-24T09:04:14.608Z,13.90
2018-04-24T09:06:42.146Z,14.43
2018-04-24T09:09:09.673Z,8.93
2018-04-24T09:11:37.323Z,10.68
2018-04-24T09:14:04.931Z,10.60
2018-04-24T09:16:33.283Z,10.40
2018-04-24T09:19:00.830Z,11.10
2018-04-24T09:21:28.347Z,11.80
2018-04-24T09:23:55.860Z,10.37
2018-04-24T09:26:23.365Z,8.30
2018-04-24T09:28:50.872Z,6.37
2018-04-24T09:31:18.407Z,5.93
2018-04-24T09:33:46.028Z,7.10
2018-04-24T09:36:13.470Z,6.45
2018-04-24T09:38:41.740Z,6.57
2018-04-24T09:41:10.012Z,5.90
2018-04-24T09:43:37.522Z,7.32
2018-04-24T09:46:05.086Z,7.70
2018-04-24T09:48:32.580Z,7.07
2018-04-24T09:51:00.877Z,6.50
2018-04-24T09:53:29.173Z,7.20
2018-04-24T09:55:56.690Z,6.40
2018-04-24T09:58:24.206Z,6.27
2018-04-24T10:00:51.789Z,6.75
2018-04-24T10:03:19.309Z,6.87
2018-04-24T10:05:46.839Z,7.45
2018-04-24T10:08:14.590Z,6.87
2018-04-24T10:10:42.141Z,7.22
2018-04-24T10:13:10.538Z,8.07
2018-04-24T10:15:38.058Z,6.72
2018-04-24T10:18:05.558Z,6.93
2018-04-24T10:20:33.066Z,8.70
2018-04-24T10:23:00.582Z,6.03
2018-04-24T10:25:28.117Z,8.88
2018-04-24T10:27:55.634Z,9.10
2018-04-24T10:30:23.157Z,8.30
2018-04-24T10:32:50.681Z,11.00
2018-04-24T10:35:18.206Z,8.50
2018-04-24T10:37:45.733Z,7.18
2018-04-24T10:40:13.297Z,7.68
2018-04-24T10:42:40.810Z,6.80
2018-04-24T10:45:08.339Z,8.17
2018-04-24T10:47:35.862Z,6.50
2018-04-24T10:50:03.397Z,8.23
2018-04-24T10:52:30.906Z,8.60
2018-04-24T10:54:58.505Z,7.80
2018-04-24T10:57:26.014Z,6.40
2018-04-24T10:59:53.517Z,7.13
2018-04-24T11:02:21.029Z,7.87
2018-04-24T11:04:48.608Z,7.22
2018-04-24T11:07:16.156Z,8.13
2018-04-24T11:09:43.670Z,8.80
2018-04-24T11:12:11.225Z,7.60
2018-04-24T11:14:38.725Z,9.50
2018-04-24T11:17:06.323Z,7.55
2018-04-24T11:19:33.778Z,9.50
2018-04-24T11:22:01.294Z,8.73
2018-04-24T11:24:28.828Z,9.52
2018-04-24T11:26:56.343Z,9.00
2018-04-24T11:29:23.857Z,9.65
2018-04-24T11:31:51.465Z,9.95
2018-04-24T11:34:19.021Z,8.75
2018-04-24T11:36:46.505Z,8.65
2018-04-24T11:39:14.005Z,9.57
2018-04-24T11:41:41.656Z,10.80
2018-04-24T11:44:09.139Z,10.23
2018-04-24T11:46:36.639Z,9.83
2018-04-24T11:49:04.192Z,11.27
2018-04-24T11:51:32.493Z,10.55
2018-04-24T11:54:00.032Z,10.77
2018-04-24T11:56:27.591Z,10.60
2018-04-24T11:58:55.868Z,9.77
2018-04-24T12:01:24.153Z,10.40
2018-04-24T12:03:52.338Z,10.95
2018-04-24T12:06:19.873Z,8.52
2018-04-24T12:08:48.147Z,8.52
2018-04-24T12:11:16.439Z,8.85
2018-04-24T12:13:43.952Z,9.40
2018-04-24T12:16:11.447Z,8.02
2018-04-24T12:18:38.969Z,7.35
2018-04-24T12:21:06.510Z,7.80
2018-04-24T12:23:34.019Z,8.10
2018-04-24T12:26:02.365Z,10.15
2018-04-24T12:28:29.900Z,8.45
2018-04-24T12:30:57.410Z,8.02
2018-04-24T12:33:24.953Z,7.20
2018-04-24T12:35:52.495Z,7.95
2018-04-24T12:38:20.076Z,6.73
2018-04-24T12:40:47.593Z,5.70
2018-04-24T12:43:15.167Z,6.00
2018-04-24T12:45:42.706Z,5.30
2018-04-24T12:48:10.229Z,4.32
2018-04-24T12:50:37.766Z,4.73
2018-04-24T12:53:05.281Z,5.03
2018-04-24T12:55:32.841Z,4.80
2018-04-24T12:58:00.362Z,5.43
2018-04-24T13:00:27.901Z,6.15
2018-04-24T13:02:55.502Z,5.80
2018-04-24T13:05:23.063Z,5.62
2018-04-24T13:07:51.342Z,5.95
2018-04-24T13:10:18.966Z,6.43
2018-04-24T13:12:46.493Z,6.05
2018-04-24T13:15:14.025Z,6.20
2018-04-24T13:17:42.342Z,5.97
2018-04-24T13:20:09.861Z,6.28
2018-04-24T13:22:37.427Z,5.80
2018-04-24T13:25:05.786Z,6.25
2018-04-24T13:27:33.261Z,6.00
2018-04-24T13:30:00.839Z,6.50
2018-04-24T13:32:28.386Z,5.12
2018-04-24T13:34:55.980Z,6.40
2018-04-24T13:37:23.494Z,7.10
2018-04-24T13:39:51.014Z,6.90
2018-04-24T13:42:18.755Z,7.28
2018-04-24T13:44:46.316Z,6.68
2018-04-24T13:47:13.921Z,7.10
2018-04-24T13:49:41.477Z,7.78
2018-04-24T13:52:08.990Z,6.93
2018-04-24T13:54:36.601Z,7.60
2018-04-24T13:57:04.891Z,7.20
2018-04-24T13:59:33.229Z,7.47
2018-04-24T14:02:00.769Z,7.72
2018-04-24T14:04:28.320Z,7.90
2018-04-24T14:06:55.920Z,10.07
2018-04-24T14:09:23.428Z,8.40
2018-04-24T14:11:50.980Z,7.67
2018-04-24T14:14:19.326Z,8.43
2018-04-24T14:16:46.832Z,8.50
2018-04-24T14:19:14.390Z,8.13
2018-04-24T14:21:41.949Z,8.48
2018-04-24T14:24:10.281Z,8.30
2018-04-24T14:26:37.790Z,7.62
2018-04-24T14:29:06.112Z,7.87
2018-04-24T14:31:34.503Z,8.80
2018-04-24T14:34:02.042Z,7.47
2018-04-24T14:36:29.574Z,8.63
2018-04-24T14:38:57.614Z,8.30
2018-04-24T14:41:25.981Z,9.00
2018-04-24T14:43:53.507Z,8.00
2018-04-24T14:46:21.772Z,8.77
2018-04-24T14:48:49.405Z,8.48
2018-04-24T14:51:16.907Z,8.70
2018-04-24T14:53:44.481Z,7.10
2018-04-24T14:56:12.085Z,7.70
2018-04-24T14:58:39.913Z,8.27
2018-04-24T15:01:07.442Z,8.57
2018-04-24T15:03:34.993Z,8.60
2018-04-24T15:06:02.626Z,9.63
2018-04-24T15:08:30.239Z,8.73
2018-04-24T15:10:57.836Z,8.02
2018-04-24T15:13:25.380Z,7.57
2018-04-24T15:15:52.910Z,8.45
2018-04-24T15:18:20.535Z,8.80
2018-04-24T15:20:48.335Z,8.57
2018-04-24T15:23:16.338Z,8.82
2018-04-24T15:25:43.978Z,8.40
2018-04-24T15:28:11.598Z,8.18
2018-04-24T15:30:39.065Z,8.55
2018-04-24T15:33:06.611Z,9.23
2018-04-24T15:35:35.000Z,9.20
2018-04-24T15:38:02.539Z,9.10
2018-04-24T15:40:30.921Z,9.23
2018-04-24T15:42:58.453Z,9.18
2018-04-24T15:45:26.037Z,9.45
2018-04-24T15:47:54.417Z,8.50
2018-04-24T15:50:22.007Z,8.90
2018-04-24T15:52:49.564Z,8.90
2018-04-24T15:55:17.132Z,9.13
2018-04-24T15:57:45.054Z,9.40
2018-04-24T16:00:12.576Z,9.52
2018-04-24T16:02:40.139Z,8.90
2018-04-24T16:05:07.990Z,9.13
2018-04-24T16:07:35.527Z,9.00
2018-04-24T16:10:03.830Z,9.15
2018-04-24T16:12:32.186Z,8.02
2018-04-24T16:14:59.713Z,9.23
2018-04-24T16:17:27.313Z,9.00
2018-04-24T16:19:54.835Z,8.93
2018-04-24T16:22:22.365Z,8.00
2018-04-24T16:24:49.956Z,8.80
2018-04-24T16:27:17.471Z,8.68
2018-04-24T16:29:45.257Z,9.07
2018-04-24T16:32:12.764Z,7.87
2018-04-24T16:34:41.052Z,9.10
2018-04-24T16:37:09.347Z,9.10
2018-04-24T16:39:36.880Z,8.53
2018-04-24T16:42:04.434Z,9.20
2018-04-24T16:44:32.760Z,8.63
2018-04-24T16:47:00.264Z,9.75
2018-04-24T16:49:27.797Z,9.38
2018-04-24T16:51:55.349Z,8.65
2018-04-24T16:54:22.954Z,9.15
2018-04-24T16:56:51.452Z,8.30
2018-04-24T16:59:18.977Z,8.50
2018-04-24T17:01:46.530Z,8.45
2018-04-24T17:04:14.128Z,8.48
2018-04-24T17:06:41.665Z,8.90
2018-04-24T17:09:09.204Z,8.45
2018-04-24T17:11:36.729Z,8.80
2018-04-24T17:14:04.327Z,8.73
2018-04-24T17:16:31.878Z,9.13
2018-04-24T17:18:59.459Z,8.70
2018-04-24T17:21:27.036Z,9.00
2018-04-24T17:23:55.350Z,8.45
2018-04-24T17:26:23.060Z,8.88
2018-04-24T17:28:50.586Z,8.60
2018-04-24T17:31:18.128Z,8.85
2018-04-24T17:33:45.661Z,8.40
2018-04-24T17:36:13.182Z,8.17
2018-04-24T17:38:40.722Z,8.10
2018-04-24T17:41:08.270Z,8.63
2018-04-24T17:43:35.834Z,8.00
2018-04-24T17:46:03.339Z,7.85
2018-04-24T17:48:30.858Z,8.60
2018-04-24T17:50:58.540Z,8.50
2018-04-24T17:53:26.094Z,8.00
2018-04-24T17:55:54.343Z,8.90
2018-04-24T17:58:22.052Z,7.68
2018-04-24T18:00:49.664Z,8.70
2018-04-24T18:03:18.535Z,7.65
2018-04-24T18:05:46.963Z,8.20
2018-04-24T18:08:14.574Z,7.85
2018-04-24T18:10:43.042Z,8.00
2018-04-24T18:13:10.629Z,7.45
2018-04-24T18:15:38.370Z,9.02
2018-04-24T18:18:06.013Z,8.57
2018-04-24T18:20:33.693Z,8.30
2018-04-24T18:23:02.260Z,9.60
2018-04-24T18:25:29.848Z,10.13
2018-04-24T18:27:57.441Z,9.07
2018-04-24T18:30:25.019Z,9.20
2018-04-24T18:32:52.620Z,9.20
2018-04-24T18:35:20.196Z,9.60
2018-04-24T18:37:47.865Z,8.50
2018-04-24T18:40:15.425Z,8.35
2018-04-24T18:42:42.985Z,7.82
2018-04-24T18:45:10.531Z,9.30
2018-04-24T18:47:38.865Z,8.60
2018-04-24T18:50:06.381Z,9.27
2018-04-24T18:52:34.691Z,9.20
2018-04-24T18:55:02.362Z,8.10
2018-04-24T18:57:29.913Z,8.43
2018-04-24T18:59:57.435Z,8.90
2018-04-24T19:02:25.735Z,9.32
2018-04-24T19:04:54.042Z,9.50
2018-04-24T19:07:21.554Z,7.95
2018-04-24T19:09:49.113Z,8.90
2018-04-24T19:12:17.423Z,9.35
2018-04-24T19:14:44.957Z,9.32
2018-04-24T19:17:12.524Z,9.50
2018-04-24T19:19:40.211Z,9.65
2018-04-24T19:22:07.952Z,10.32
2018-04-24T19:24:41.235Z,10.15
2018-04-24T19:27:08.816Z,8.80
2018-04-24T19:29:36.375Z,12.10
2018-04-24T19:32:10.434Z,9.52
2018-04-24T19:34:38.004Z,9.55
2018-04-24T19:37:05.590Z,9.43
2018-04-24T19:39:39.737Z,9.77
2018-04-24T19:42:07.298Z,9.88
2018-04-24T19:44:34.839Z,9.60
2018-04-24T19:47:02.441Z,10.02
2018-04-24T19:49:35.725Z,10.40
2018-04-24T19:52:03.252Z,9.68
2018-04-24T19:54:30.826Z,10.02
2018-04-24T19:56:58.371Z,10.13
2018-04-24T19:59:25.964Z,10.23
2018-04-24T20:01:54.848Z,9.13
2018-04-24T20:04:22.483Z,9.25
2018-04-24T20:06:50.962Z,10.18
2018-04-24T20:09:19.285Z,9.80
2018-04-24T20:11:46.832Z,10.20
2018-04-24T20:14:14.358Z,10.80
2018-04-24T20:16:42.685Z,10.20
2018-04-24T20:19:10.841Z,9.43
2018-04-24T20:21:38.402Z,10.20
2018-04-24T20:24:06.401Z,18.27
2018-04-24T20:26:34.018Z,11.18
2018-04-24T20:29:01.663Z,11.27
2018-04-24T20:31:29.219Z,10.75
2018-04-24T20:33:57.502Z,10.68
2018-04-24T20:36:25.949Z,10.88
2018-04-24T20:38:53.497Z,10.93
2018-04-24T20:41:21.039Z,13.50
2018-04-24T20:43:48.572Z,10.67
2018-04-24T20:46:16.085Z,11.05
2018-04-24T20:48:43.628Z,12.07
2018-04-24T20:51:11.163Z,11.20
2018-04-24T20:53:38.731Z,11.10
2018-04-24T20:56:06.291Z,10.45
2018-04-24T20:58:33.822Z,10.88
2018-04-24T21:01:01.469Z,11.20
2018-04-24T21:03:28.982Z,11.05
2018-04-24T21:05:56.499Z,10.45
2018-04-24T21:08:24.794Z,10.50
2018-04-24T21:10:52.655Z,10.77
2018-04-24T21:13:20.579Z,10.63
2018-04-24T21:15:48.155Z,12.33
2018-04-24T21:18:15.735Z,11.15
2018-04-24T21:20:43.313Z,10.88
2018-04-24T21:23:10.874Z,10.98
2018-04-24T21:25:38.390Z,11.95
2018-04-24T21:28:06.058Z,11.15
2018-04-24T21:30:33.633Z,12.20
2018-04-24T21:33:01.930Z,12.20
2018-04-24T21:35:29.482Z,11.25
2018-04-24T21:37:57.830Z,12.95
2018-04-24T21:40:25.355Z,12.63
2018-04-24T21:42:52.888Z,12.60
2018-04-24T21:45:20.465Z,13.40
2018-04-24T21:47:47.987Z,11.07
2018-04-24T21:50:16.301Z,12.30
2018-04-24T21:52:43.875Z,12.82
2018-04-24T21:55:11.410Z,11.25
2018-04-24T21:57:38.972Z,12.63
2018-04-24T22:00:06.501Z,12.77
2018-04-24T22:02:34.809Z,12.40
2018-04-24T22:05:02.362Z,12.00
2018-04-24T22:07:29.907Z,12.40
2018-04-24T22:09:58.224Z,11.23
2018-04-24T22:12:25.752Z,11.73
2018-04-24T22:14:53.318Z,12.20
2018-04-24T22:17:20.863Z,12.00
2018-04-24T22:19:48.454Z,13.10
2018-04-24T22:22:16.140Z,13.80
2018-04-24T22:24:43.674Z,12.70
2018-04-24T22:27:11.231Z,12.80
2018-04-24T22:29:38.745Z,12.70
2018-04-24T22:32:06.276Z,12.60
2018-04-24T22:34:33.965Z,13.00
2018-04-24T22:37:02.787Z,14.50
2018-04-24T22:39:30.374Z,14.98
2018-04-24T22:41:57.919Z,14.50
2018-04-24T22:44:25.468Z,13.32
2018-04-24T22:46:53.005Z,13.80
2018-04-24T22:49:20.716Z,13.30
2018-04-24T22:51:48.279Z,14.05
2018-04-24T22:54:16.190Z,13.80
2018-04-24T22:56:44.260Z,14.20
2018-04-24T22:59:11.812Z,14.23
2018-04-24T23:01:39.874Z,14.13
2018-04-24T23:04:07.622Z,14.13
2018-04-24T23:06:35.178Z,14.23
2018-04-24T23:09:02.695Z,14.05
2018-04-24T23:11:43.250Z,14.20
2018-04-24T23:14:24.656Z,15.13
2018-04-24T23:17:04.914Z,16.15
2018-04-24T23:19:44.281Z,16.95
2018-04-24T23:22:23.558Z,16.08
2018-04-24T23:24:51.250Z,17.23
2018-04-24T23:27:18.826Z,17.95
2018-04-24T23:29:46.385Z,16.77
2018-04-24T23:32:13.912Z,17.98
2018-04-24T23:34:41.441Z,18.87
2018-04-24T23:37:09.009Z,17.83
2018-04-24T23:39:36.532Z,18.60
2018-04-24T23:42:04.098Z,18.35
2018-04-24T23:44:31.707Z,19.55
2018-04-24T23:46:59.237Z,19.40
2018-04-24T23:49:26.745Z,19.65
2018-04-24T23:51:55.050Z,19.53
2018-04-24T23:54:22.584Z,18.98
2018-04-24T23:56:50.097Z,18.60
2018-04-24T23:59:17.614Z,19.73
